sensor_id;sensor_type;location;lat;lon;timestamp;pressure;altitude;pressure_sealevel;temperature;humidity
77110;BME280;66062;52.464;16.922;2023-03-20T00:01:18;100565.00;;;5.71;89.81
77110;BME280;66062;52.464;16.922;2023-03-20T00:03:44;100572.50;;;5.77;89.30
77110;BME280;66062;52.464;16.922;2023-03-20T00:06:20;100570.38;;;5.82;88.22
77110;BME280;66062;52.464;16.922;2023-03-20T00:08:47;100559.38;;;5.76;88.54
77110;BME280;66062;52.464;16.922;2023-03-20T00:11:33;100562.78;;;5.78;88.20
77110;BME280;66062;52.464;16.922;2023-03-20T00:14:12;100556.72;;;5.76;87.89
77110;BME280;66062;52.464;16.922;2023-03-20T00:16:41;100565.28;;;5.79;89.29
77110;BME280;66062;52.464;16.922;2023-03-20T00:21:42;100568.91;;;5.91;89.29
77110;BME280;66062;52.464;16.922;2023-03-20T00:24:07;100558.88;;;6.07;87.91
77110;BME280;66062;52.464;16.922;2023-03-20T00:26:34;100557.34;;;6.16;87.86
77110;BME280;66062;52.464;16.922;2023-03-20T00:29:01;100554.75;;;6.27;87.45
77110;BME280;66062;52.464;16.922;2023-03-20T00:31:30;100562.97;;;6.35;86.95
77110;BME280;66062;52.464;16.922;2023-03-20T00:33:58;100562.06;;;6.47;86.44
77110;BME280;66062;52.464;16.922;2023-03-20T00:36:25;100558.47;;;6.48;84.68
77110;BME280;66062;52.464;16.922;2023-03-20T00:38:51;100559.34;;;6.60;85.29
77110;BME280;66062;52.464;16.922;2023-03-20T00:43:50;100552.56;;;6.44;83.51
77110;BME280;66062;52.464;16.922;2023-03-20T00:46:17;100549.59;;;6.36;84.84
77110;BME280;66062;52.464;16.922;2023-03-20T00:48:43;100542.63;;;6.35;85.12
77110;BME280;66062;52.464;16.922;2023-03-20T00:51:08;100548.50;;;6.28;85.58
77110;BME280;66062;52.464;16.922;2023-03-20T00:53:34;100547.50;;;6.18;85.66
77110;BME280;66062;52.464;16.922;2023-03-20T00:56:00;100543.38;;;6.14;86.06
77110;BME280;66062;52.464;16.922;2023-03-20T00:58:26;100545.38;;;6.10;87.09
77110;BME280;66062;52.464;16.922;2023-03-20T01:00:52;100549.47;;;6.03;87.93
77110;BME280;66062;52.464;16.922;2023-03-20T01:03:19;100551.28;;;6.03;88.50
77110;BME280;66062;52.464;16.922;2023-03-20T01:05:47;100550.94;;;6.07;87.84
77110;BME280;66062;52.464;16.922;2023-03-20T01:08:23;100538.88;;;6.03;88.57
77110;BME280;66062;52.464;16.922;2023-03-20T01:10:52;100540.44;;;6.06;88.44
77110;BME280;66062;52.464;16.922;2023-03-20T01:13:20;100537.59;;;6.09;88.42
77110;BME280;66062;52.464;16.922;2023-03-20T01:15:46;100535.28;;;6.04;87.24
77110;BME280;66062;52.464;16.922;2023-03-20T01:18:14;100536.78;;;5.95;88.14
77110;BME280;66062;52.464;16.922;2023-03-20T01:20:40;100539.84;;;5.89;88.44
77110;BME280;66062;52.464;16.922;2023-03-20T01:23:06;100538.38;;;5.85;88.80
77110;BME280;66062;52.464;16.922;2023-03-20T01:25:31;100538.81;;;5.79;88.45
77110;BME280;66062;52.464;16.922;2023-03-20T01:27:57;100535.09;;;5.82;90.73
77110;BME280;66062;52.464;16.922;2023-03-20T01:30:28;100537.75;;;5.82;90.22
77110;BME280;66062;52.464;16.922;2023-03-20T01:32:55;100543.38;;;5.77;90.59
77110;BME280;66062;52.464;16.922;2023-03-20T01:35:22;100536.66;;;5.84;90.16
77110;BME280;66062;52.464;16.922;2023-03-20T01:37:49;100537.66;;;5.83;89.85
77110;BME280;66062;52.464;16.922;2023-03-20T01:42:51;100537.41;;;5.86;89.74
77110;BME280;66062;52.464;16.922;2023-03-20T01:45:21;100533.84;;;5.87;90.56
77110;BME280;66062;52.464;16.922;2023-03-20T01:47:48;100526.69;;;6.00;90.11
77110;BME280;66062;52.464;16.922;2023-03-20T01:52:51;100530.13;;;6.14;88.08
77110;BME280;66062;52.464;16.922;2023-03-20T01:55:19;100524.03;;;6.00;87.99
77110;BME280;66062;52.464;16.922;2023-03-20T01:57:45;100526.00;;;6.10;89.63
77110;BME280;66062;52.464;16.922;2023-03-20T02:00:14;100525.19;;;6.20;88.25
77110;BME280;66062;52.464;16.922;2023-03-20T02:02:43;100525.34;;;6.30;88.13
77110;BME280;66062;52.464;16.922;2023-03-20T02:05:10;100529.75;;;6.42;87.94
77110;BME280;66062;52.464;16.922;2023-03-20T02:07:38;100533.13;;;6.79;85.41
77110;BME280;66062;52.464;16.922;2023-03-20T02:10:05;100522.38;;;6.92;85.03
77110;BME280;66062;52.464;16.922;2023-03-20T02:12:33;100530.84;;;6.85;84.45
77110;BME280;66062;52.464;16.922;2023-03-20T02:14:59;100523.59;;;6.87;85.33
77110;BME280;66062;52.464;16.922;2023-03-20T02:17:25;100524.47;;;6.99;84.37
77110;BME280;66062;52.464;16.922;2023-03-20T02:22:43;100531.94;;;7.27;83.95
77110;BME280;66062;52.464;16.922;2023-03-20T02:38:43;100528.31;;;7.28;87.93
77110;BME280;66062;52.464;16.922;2023-03-20T02:41:34;100530.41;;;7.36;88.35
77110;BME280;66062;52.464;16.922;2023-03-20T02:44:27;100531.22;;;7.37;89.29
77110;BME280;66062;52.464;16.922;2023-03-20T02:47:04;100541.81;;;7.37;89.90
77110;BME280;66062;52.464;16.922;2023-03-20T02:49:55;100520.22;;;7.52;90.43
77110;BME280;66062;52.464;16.922;2023-03-20T03:00:44;100516.16;;;7.15;98.46
77110;BME280;66062;52.464;16.922;2023-03-20T03:03:16;100525.56;;;7.19;98.54
77110;BME280;66062;52.464;16.922;2023-03-20T03:05:51;100521.22;;;7.18;98.29
77110;BME280;66062;52.464;16.922;2023-03-20T03:08:20;100508.66;;;7.20;98.02
77110;BME280;66062;52.464;16.922;2023-03-20T03:10:51;100518.81;;;7.15;99.19
77110;BME280;66062;52.464;16.922;2023-03-20T03:13:27;100517.09;;;7.03;100.00
77110;BME280;66062;52.464;16.922;2023-03-20T03:16:01;100515.41;;;7.02;100.00
77110;BME280;66062;52.464;16.922;2023-03-20T03:18:32;100520.34;;;7.17;100.00
77110;BME280;66062;52.464;16.922;2023-03-20T03:21:01;100515.91;;;7.18;100.00
77110;BME280;66062;52.464;16.922;2023-03-20T03:23:31;100513.13;;;7.30;100.00
77110;BME280;66062;52.464;16.922;2023-03-20T03:25:58;100518.66;;;7.39;100.00
77110;BME280;66062;52.464;16.922;2023-03-20T03:28:30;100519.50;;;7.39;100.00
77110;BME280;66062;52.464;16.922;2023-03-20T03:31:06;100513.72;;;7.45;100.00
77110;BME280;66062;52.464;16.922;2023-03-20T03:33:34;100517.09;;;7.47;100.00
77110;BME280;66062;52.464;16.922;2023-03-20T03:39:00;100510.22;;;7.45;100.00
77110;BME280;66062;52.464;16.922;2023-03-20T03:41:40;100510.34;;;7.43;100.00
77110;BME280;66062;52.464;16.922;2023-03-20T03:46:44;100505.28;;;7.40;100.00
77110;BME280;66062;52.464;16.922;2023-03-20T03:49:12;100506.84;;;7.31;100.00
77110;BME280;66062;52.464;16.922;2023-03-20T03:51:41;100506.50;;;7.36;100.00
77110;BME280;66062;52.464;16.922;2023-03-20T03:54:30;100501.88;;;7.38;100.00
77110;BME280;66062;52.464;16.922;2023-03-20T03:56:57;100499.00;;;7.30;100.00
77110;BME280;66062;52.464;16.922;2023-03-20T03:59:29;100502.63;;;7.40;100.00
77110;BME280;66062;52.464;16.922;2023-03-20T04:01:56;100501.41;;;7.55;100.00
77110;BME280;66062;52.464;16.922;2023-03-20T04:04:24;100503.56;;;7.61;100.00
77110;BME280;66062;52.464;16.922;2023-03-20T04:06:51;100506.44;;;7.58;100.00
77110;BME280;66062;52.464;16.922;2023-03-20T04:09:16;100506.56;;;7.68;100.00
77110;BME280;66062;52.464;16.922;2023-03-20T04:11:42;100495.22;;;7.66;100.00
77110;BME280;66062;52.464;16.922;2023-03-20T04:14:09;100497.97;;;7.76;100.00
77110;BME280;66062;52.464;16.922;2023-03-20T04:16:35;100506.44;;;7.58;100.00
77110;BME280;66062;52.464;16.922;2023-03-20T04:19:01;100513.47;;;7.48;100.00
77110;BME280;66062;52.464;16.922;2023-03-20T04:21:27;100508.06;;;7.39;100.00
77110;BME280;66062;52.464;16.922;2023-03-20T04:23:52;100517.81;;;7.27;100.00
77110;BME280;66062;52.464;16.922;2023-03-20T04:26:18;100508.91;;;7.17;100.00
77110;BME280;66062;52.464;16.922;2023-03-20T04:28:43;100509.84;;;7.27;100.00
77110;BME280;66062;52.464;16.922;2023-03-20T04:31:08;100508.53;;;7.32;100.00
77110;BME280;66062;52.464;16.922;2023-03-20T04:33:34;100512.78;;;7.35;100.00
77110;BME280;66062;52.464;16.922;2023-03-20T04:36:00;100503.97;;;7.23;100.00
77110;BME280;66062;52.464;16.922;2023-03-20T04:38:25;100505.16;;;7.19;100.00
77110;BME280;66062;52.464;16.922;2023-03-20T04:40:51;100505.75;;;7.12;100.00
77110;BME280;66062;52.464;16.922;2023-03-20T04:43:16;100505.66;;;7.24;100.00
77110;BME280;66062;52.464;16.922;2023-03-20T04:45:42;100504.22;;;7.20;100.00
77110;BME280;66062;52.464;16.922;2023-03-20T04:48:08;100506.72;;;7.33;100.00
77110;BME280;66062;52.464;16.922;2023-03-20T04:50:33;100515.28;;;7.37;100.00
77110;BME280;66062;52.464;16.922;2023-03-20T04:52:59;100512.75;;;7.46;100.00
77110;BME280;66062;52.464;16.922;2023-03-20T04:55:24;100510.59;;;7.40;100.00
77110;BME280;66062;52.464;16.922;2023-03-20T04:57:50;100517.09;;;7.47;100.00
77110;BME280;66062;52.464;16.922;2023-03-20T05:00:16;100510.22;;;7.56;100.00
77110;BME280;66062;52.464;16.922;2023-03-20T05:02:42;100503.78;;;7.58;100.00
77110;BME280;66062;52.464;16.922;2023-03-20T05:05:09;100509.47;;;7.65;100.00
77110;BME280;66062;52.464;16.922;2023-03-20T05:07:35;100513.94;;;7.64;100.00
77110;BME280;66062;52.464;16.922;2023-03-20T05:10:01;100510.53;;;7.62;100.00
77110;BME280;66062;52.464;16.922;2023-03-20T05:12:27;100519.25;;;7.64;100.00
77110;BME280;66062;52.464;16.922;2023-03-20T05:14:53;100522.38;;;7.69;100.00
77110;BME280;66062;52.464;16.922;2023-03-20T05:17:22;100516.56;;;7.76;100.00
77110;BME280;66062;52.464;16.922;2023-03-20T05:19:49;100516.56;;;7.76;100.00
77110;BME280;66062;52.464;16.922;2023-03-20T05:22:16;100514.84;;;7.86;100.00
77110;BME280;66062;52.464;16.922;2023-03-20T05:24:41;100522.91;;;7.95;100.00
77110;BME280;66062;52.464;16.922;2023-03-20T05:27:07;100521.59;;;7.90;100.00
77110;BME280;66062;52.464;16.922;2023-03-20T05:29:33;100518.34;;;7.86;100.00
77110;BME280;66062;52.464;16.922;2023-03-20T05:31:58;100526.19;;;7.88;100.00
77110;BME280;66062;52.464;16.922;2023-03-20T05:34:23;100521.81;;;7.98;100.00
77110;BME280;66062;52.464;16.922;2023-03-20T05:36:49;100526.03;;;8.00;100.00
77110;BME280;66062;52.464;16.922;2023-03-20T05:39:15;100526.19;;;7.88;100.00
77110;BME280;66062;52.464;16.922;2023-03-20T05:41:40;100519.69;;;7.92;100.00
77110;BME280;66062;52.464;16.922;2023-03-20T05:44:06;100524.00;;;7.93;100.00
77110;BME280;66062;52.464;16.922;2023-03-20T05:46:31;100524.16;;;7.91;100.00
77110;BME280;66062;52.464;16.922;2023-03-20T05:48:57;100528.84;;;7.88;100.00
77110;BME280;66062;52.464;16.922;2023-03-20T05:51:22;100532.31;;;7.99;100.00
77110;BME280;66062;52.464;16.922;2023-03-20T05:53:48;100536.31;;;7.94;100.00
77110;BME280;66062;52.464;16.922;2023-03-20T05:56:13;100530.78;;;7.97;100.00
77110;BME280;66062;52.464;16.922;2023-03-20T05:58:39;100537.28;;;7.93;100.00
77110;BME280;66062;52.464;16.922;2023-03-20T06:01:04;100530.50;;;8.00;100.00
77110;BME280;66062;52.464;16.922;2023-03-20T06:03:30;100540.19;;;8.01;100.00
77110;BME280;66062;52.464;16.922;2023-03-20T06:05:56;100534.88;;;8.01;100.00
77110;BME280;66062;52.464;16.922;2023-03-20T06:08:21;100539.31;;;8.11;100.00
77110;BME280;66062;52.464;16.922;2023-03-20T06:10:49;100541.34;;;8.08;100.00
77110;BME280;66062;52.464;16.922;2023-03-20T06:13:16;100535.69;;;8.12;100.00
77110;BME280;66062;52.464;16.922;2023-03-20T06:15:41;100538.47;;;8.11;100.00
77110;BME280;66062;52.464;16.922;2023-03-20T06:18:06;100542.19;;;8.08;100.00
77110;BME280;66062;52.464;16.922;2023-03-20T06:20:32;100543.84;;;8.21;100.00
77110;BME280;66062;52.464;16.922;2023-03-20T06:22:58;100541.66;;;8.26;100.00
77110;BME280;66062;52.464;16.922;2023-03-20T06:25:23;100544.91;;;8.40;100.00
77110;BME280;66062;52.464;16.922;2023-03-20T06:27:49;100543.00;;;8.31;100.00
77110;BME280;66062;52.464;16.922;2023-03-20T06:30:15;100552.41;;;8.35;100.00
77110;BME280;66062;52.464;16.922;2023-03-20T06:32:41;100555.53;;;8.29;100.00
77110;BME280;66062;52.464;16.922;2023-03-20T06:35:07;100555.25;;;8.43;100.00
77110;BME280;66062;52.464;16.922;2023-03-20T06:37:33;100548.66;;;8.38;100.00
77110;BME280;66062;52.464;16.922;2023-03-20T06:40:01;100550.88;;;8.33;100.00
77110;BME280;66062;52.464;16.922;2023-03-20T06:42:28;100549.19;;;8.52;100.00
77110;BME280;66062;52.464;16.922;2023-03-20T06:44:53;100546.16;;;8.57;100.00
77110;BME280;66062;52.464;16.922;2023-03-20T06:47:19;100546.72;;;8.61;100.00
77110;BME280;66062;52.464;16.922;2023-03-20T06:49:44;100552.06;;;8.61;100.00
77110;BME280;66062;52.464;16.922;2023-03-20T06:52:16;100552.25;;;8.69;100.00
77110;BME280;66062;52.464;16.922;2023-03-20T06:54:44;100552.91;;;8.61;100.00
77110;BME280;66062;52.464;16.922;2023-03-20T06:57:10;100543.09;;;8.62;100.00
77110;BME280;66062;52.464;16.922;2023-03-20T06:59:36;100553.09;;;8.69;100.00
77110;BME280;66062;52.464;16.922;2023-03-20T07:02:02;100550.34;;;8.59;100.00
77110;BME280;66062;52.464;16.922;2023-03-20T07:04:28;100551.88;;;8.52;100.00
77110;BME280;66062;52.464;16.922;2023-03-20T07:06:53;100547.97;;;8.56;100.00
77110;BME280;66062;52.464;16.922;2023-03-20T07:09:19;100560.50;;;8.66;100.00
77110;BME280;66062;52.464;16.922;2023-03-20T07:11:46;100558.50;;;8.58;100.00
77110;BME280;66062;52.464;16.922;2023-03-20T07:14:12;100561.97;;;8.58;100.00
77110;BME280;66062;52.464;16.922;2023-03-20T07:16:38;100566.25;;;8.71;100.00
77110;BME280;66062;52.464;16.922;2023-03-20T07:19:03;100566.09;;;8.63;100.00
77110;BME280;66062;52.464;16.922;2023-03-20T07:21:29;100573.00;;;8.75;100.00
77110;BME280;66062;52.464;16.922;2023-03-20T07:23:54;100563.34;;;8.74;100.00
77110;BME280;66062;52.464;16.922;2023-03-20T07:26:20;100567.63;;;8.86;100.00
77110;BME280;66062;52.464;16.922;2023-03-20T07:28:45;100570.19;;;8.87;100.00
77110;BME280;66062;52.464;16.922;2023-03-20T07:31:19;100563.94;;;8.98;100.00
77110;BME280;66062;52.464;16.922;2023-03-20T07:33:46;100563.50;;;8.72;100.00
77110;BME280;66062;52.464;16.922;2023-03-20T07:36:11;100560.50;;;8.66;100.00
77110;BME280;66062;52.464;16.922;2023-03-20T07:38:37;100557.38;;;8.81;100.00
77110;BME280;66062;52.464;16.922;2023-03-20T07:41:02;100560.47;;;9.07;100.00
77110;BME280;66062;52.464;16.922;2023-03-20T07:43:28;100564.56;;;8.70;100.00
77110;BME280;66062;52.464;16.922;2023-03-20T07:45:53;100571.97;;;8.66;100.00
77110;BME280;66062;52.464;16.922;2023-03-20T07:48:19;100552.78;;;8.63;100.00
77110;BME280;66062;52.464;16.922;2023-03-20T07:50:44;100555.69;;;9.01;100.00
77110;BME280;66062;52.464;16.922;2023-03-20T07:53:10;100569.53;;;9.25;100.00
77110;BME280;66062;52.464;16.922;2023-03-20T07:55:35;100572.25;;;9.35;99.30
77110;BME280;66062;52.464;16.922;2023-03-20T07:58:01;100564.47;;;9.43;98.60
77110;BME280;66062;52.464;16.922;2023-03-20T08:00:26;100570.75;;;9.12;100.00
77110;BME280;66062;52.464;16.922;2023-03-20T08:02:53;100563.31;;;9.15;100.00
77110;BME280;66062;52.464;16.922;2023-03-20T08:05:21;100563.53;;;9.54;100.00
77110;BME280;66062;52.464;16.922;2023-03-20T08:07:46;100560.94;;;9.82;97.21
77110;BME280;66062;52.464;16.922;2023-03-20T08:10:11;100561.25;;;9.99;97.04
77110;BME280;66062;52.464;16.922;2023-03-20T08:12:40;100563.22;;;9.97;94.23
77110;BME280;66062;52.464;16.922;2023-03-20T08:15:05;100561.88;;;10.31;94.22
77110;BME280;66062;52.464;16.922;2023-03-20T08:17:31;100571.19;;;10.46;93.81
77110;BME280;66062;52.464;16.922;2023-03-20T08:19:56;100566.16;;;11.19;88.17
77110;BME280;66062;52.464;16.922;2023-03-20T08:22:25;100566.78;;;10.93;88.51
77110;BME280;66062;52.464;16.922;2023-03-20T08:24:50;100558.94;;;11.66;87.63
77110;BME280;66062;52.464;16.922;2023-03-20T08:27:16;100560.75;;;12.20;82.38
77110;BME280;66062;52.464;16.922;2023-03-20T08:29:41;100563.84;;;12.60;80.98
77110;BME280;66062;52.464;16.922;2023-03-20T08:32:07;100563.94;;;12.33;81.54
77110;BME280;66062;52.464;16.922;2023-03-20T08:34:32;100569.56;;;12.12;83.83
77110;BME280;66062;52.464;16.922;2023-03-20T08:36:58;100570.88;;;12.08;82.71
77110;BME280;66062;52.464;16.922;2023-03-20T08:39:23;100575.22;;;11.82;84.85
77110;BME280;66062;52.464;16.922;2023-03-20T08:41:49;100577.97;;;11.63;85.49
77110;BME280;66062;52.464;16.922;2023-03-20T08:44:14;100579.13;;;11.50;86.58
77110;BME280;66062;52.464;16.922;2023-03-20T08:46:40;100575.47;;;11.51;87.55
77110;BME280;66062;52.464;16.922;2023-03-20T08:49:07;100573.34;;;11.55;88.01
77110;BME280;66062;52.464;16.922;2023-03-20T08:51:33;100584.34;;;11.52;88.11
77110;BME280;66062;52.464;16.922;2023-03-20T08:53:59;100579.38;;;11.94;87.68
77110;BME280;66062;52.464;16.922;2023-03-20T08:56:24;100580.28;;;12.30;85.64
77110;BME280;66062;52.464;16.922;2023-03-20T08:58:49;100583.22;;;12.54;83.25
77110;BME280;66062;52.464;16.922;2023-03-20T09:01:17;100579.59;;;11.83;87.00
77110;BME280;66062;52.464;16.922;2023-03-20T09:03:43;100575.00;;;12.56;82.85
77110;BME280;66062;52.464;16.922;2023-03-20T09:06:09;100579.56;;;12.81;82.08
77110;BME280;66062;52.464;16.922;2023-03-20T09:08:35;100576.00;;;12.72;83.45
77110;BME280;66062;52.464;16.922;2023-03-20T09:11:00;100577.94;;;13.23;80.47
77110;BME280;66062;52.464;16.922;2023-03-20T09:13:26;100584.06;;;12.98;81.07
77110;BME280;66062;52.464;16.922;2023-03-20T09:15:52;100583.88;;;12.74;82.39
77110;BME280;66062;52.464;16.922;2023-03-20T09:18:19;100583.09;;;12.81;82.59
77110;BME280;66062;52.464;16.922;2023-03-20T09:20:46;100586.53;;;12.92;81.64
77110;BME280;66062;52.464;16.922;2023-03-20T09:23:11;100582.81;;;13.62;79.60
77110;BME280;66062;52.464;16.922;2023-03-20T09:25:37;100580.44;;;13.85;77.25
77110;BME280;66062;52.464;16.922;2023-03-20T09:28:02;100580.00;;;14.13;75.16
77110;BME280;66062;52.464;16.922;2023-03-20T09:30:28;100574.16;;;14.18;74.94
77110;BME280;66062;52.464;16.922;2023-03-20T09:32:53;100568.06;;;14.66;72.65
77110;BME280;66062;52.464;16.922;2023-03-20T09:35:19;100567.53;;;15.11;71.61
77110;BME280;66062;52.464;16.922;2023-03-20T09:37:45;100570.81;;;15.46;69.54
77110;BME280;66062;52.464;16.922;2023-03-20T09:40:53;100570.25;;;14.04;74.95
77110;BME280;66062;52.464;16.922;2023-03-20T09:46:32;100565.34;;;14.42;72.15
77110;BME280;66062;52.464;16.922;2023-03-20T09:49:12;100564.09;;;14.28;74.09
77110;BME280;66062;52.464;16.922;2023-03-20T09:51:56;100567.31;;;14.32;74.76
77110;BME280;66062;52.464;16.922;2023-03-20T09:54:32;100565.97;;;14.36;74.81
77110;BME280;66062;52.464;16.922;2023-03-20T09:57:00;100569.81;;;14.33;74.64
77110;BME280;66062;52.464;16.922;2023-03-20T09:59:27;100568.78;;;14.10;75.62
77110;BME280;66062;52.464;16.922;2023-03-20T10:01:59;100568.47;;;14.21;76.52
77110;BME280;66062;52.464;16.922;2023-03-20T10:04:28;100567.19;;;14.49;75.55
77110;BME280;66062;52.464;16.922;2023-03-20T10:06:54;100563.19;;;14.78;73.70
77110;BME280;66062;52.464;16.922;2023-03-20T10:09:21;100568.06;;;14.90;72.90
77110;BME280;66062;52.464;16.922;2023-03-20T10:22:55;100575.72;;;15.42;71.02
77110;BME280;66062;52.464;16.922;2023-03-20T10:25:30;100575.25;;;15.86;68.82
77110;BME280;66062;52.464;16.922;2023-03-20T10:27:58;100567.25;;;16.00;68.77
77110;BME280;66062;52.464;16.922;2023-03-20T10:35:49;100563.91;;;17.93;61.98
77110;BME280;66062;52.464;16.922;2023-03-20T10:41:02;100557.31;;;18.74;58.62
77110;BME280;66062;52.464;16.922;2023-03-20T10:43:34;100553.06;;;19.08;58.04
77110;BME280;66062;52.464;16.922;2023-03-20T10:46:07;100563.84;;;20.78;53.81
77110;BME280;66062;52.464;16.922;2023-03-20T10:51:11;100550.47;;;20.51;53.70
77110;BME280;66062;52.464;16.922;2023-03-20T10:53:44;100554.97;;;21.82;48.81
77110;BME280;66062;52.464;16.922;2023-03-20T10:56:23;100557.06;;;21.86;48.59
77110;BME280;66062;52.464;16.922;2023-03-20T10:59:02;100547.34;;;20.73;50.17
77110;BME280;66062;52.464;16.922;2023-03-20T11:01:28;100539.63;;;20.57;51.28
77110;BME280;66062;52.464;16.922;2023-03-20T11:03:54;100543.84;;;21.25;49.25
77110;BME280;66062;52.464;16.922;2023-03-20T11:06:26;100545.53;;;22.04;48.33
77110;BME280;66062;52.464;16.922;2023-03-20T11:08:54;100536.91;;;22.13;46.25
77110;BME280;66062;52.464;16.922;2023-03-20T11:11:27;100543.31;;;24.11;42.25
77110;BME280;66062;52.464;16.922;2023-03-20T11:14:08;100535.13;;;22.32;44.25
77110;BME280;66062;52.464;16.922;2023-03-20T11:16:34;100533.59;;;21.21;48.71
77110;BME280;66062;52.464;16.922;2023-03-20T11:19:06;100537.00;;;22.32;45.12
77110;BME280;66062;52.464;16.922;2023-03-20T11:21:34;100541.16;;;22.72;44.29
77110;BME280;66062;52.464;16.922;2023-03-20T11:24:03;100545.28;;;21.02;47.45
77110;BME280;66062;52.464;16.922;2023-03-20T11:26:36;100543.84;;;20.92;48.72
77110;BME280;66062;52.464;16.922;2023-03-20T11:29:05;100542.06;;;22.59;45.02
77110;BME280;66062;52.464;16.922;2023-03-20T11:31:34;100531.09;;;22.03;45.17
77110;BME280;66062;52.464;16.922;2023-03-20T11:36:30;100551.81;;;18.61;51.64
77110;BME280;66062;52.464;16.922;2023-03-20T11:41:34;100549.19;;;18.32;54.57
77110;BME280;66062;52.464;16.922;2023-03-20T11:46:55;100542.00;;;18.82;52.59
77110;BME280;66062;52.464;16.922;2023-03-20T11:49:22;100547.31;;;19.45;51.17
77110;BME280;66062;52.464;16.922;2023-03-20T11:51:52;100548.69;;;19.41;50.70
77110;BME280;66062;52.464;16.922;2023-03-20T11:54:21;100541.34;;;18.79;52.84
77110;BME280;66062;52.464;16.922;2023-03-20T11:56:54;100533.41;;;18.14;54.95
77110;BME280;66062;52.464;16.922;2023-03-20T11:59:22;100530.00;;;18.06;55.46
77110;BME280;66062;52.464;16.922;2023-03-20T12:01:52;100530.19;;;17.01;57.77
77110;BME280;66062;52.464;16.922;2023-03-20T12:06:53;100530.31;;;15.86;61.73
77110;BME280;66062;52.464;16.922;2023-03-20T12:09:53;100532.28;;;15.61;64.18
77110;BME280;66062;52.464;16.922;2023-03-20T12:18:02;100512.31;;;20.91;48.22
77110;BME280;66062;52.464;16.922;2023-03-20T12:20:40;100509.41;;;20.67;47.31
77110;BME280;66062;52.464;16.922;2023-03-20T12:25:56;100505.19;;;18.80;50.61
77110;BME280;66062;52.464;16.922;2023-03-20T12:28:29;100511.75;;;18.50;51.15
77110;BME280;66062;52.464;16.922;2023-03-20T12:33:43;100502.88;;;17.63;53.64
77110;BME280;66062;52.464;16.922;2023-03-20T12:36:15;100503.81;;;19.53;49.81
77110;BME280;66062;52.464;16.922;2023-03-20T12:38:41;100496.00;;;19.03;49.80
77110;BME280;66062;52.464;16.922;2023-03-20T12:43:48;100494.13;;;19.38;48.77
77110;BME280;66062;52.464;16.922;2023-03-20T12:54:50;100491.09;;;16.83;57.14
77110;BME280;66062;52.464;16.922;2023-03-20T12:57:34;100486.03;;;17.17;55.55
77110;BME280;66062;52.464;16.922;2023-03-20T13:10:57;100477.06;;;16.27;55.23
77110;BME280;66062;52.464;16.922;2023-03-20T13:16:28;100473.66;;;17.08;52.46
77110;BME280;66062;52.464;16.922;2023-03-20T13:19:06;100462.19;;;17.50;51.74
77110;BME280;66062;52.464;16.922;2023-03-20T13:22:34;100472.19;;;17.20;52.77
77110;BME280;66062;52.464;16.922;2023-03-20T13:24:38;100477.06;;;16.50;54.18
77110;BME280;66062;52.464;16.922;2023-03-20T13:32:49;100473.47;;;15.89;56.83
77110;BME280;66062;52.464;16.922;2023-03-20T13:38:16;100468.41;;;15.55;57.76
77110;BME280;66062;52.464;16.922;2023-03-20T13:40:45;100458.06;;;15.75;57.64
77110;BME280;66062;52.464;16.922;2023-03-20T13:45:52;100457.91;;;16.67;54.90
77110;BME280;66062;52.464;16.922;2023-03-20T13:48:34;100448.63;;;16.70;54.52
77110;BME280;66062;52.464;16.922;2023-03-20T13:54:09;100447.69;;;17.51;51.90
77110;BME280;66062;52.464;16.922;2023-03-20T13:56:48;100451.22;;;17.51;50.07
77110;BME280;66062;52.464;16.922;2023-03-20T13:59:38;100441.84;;;17.03;52.16
77110;BME280;66062;52.464;16.922;2023-03-20T14:02:10;100454.88;;;16.85;53.08
77110;BME280;66062;52.464;16.922;2023-03-20T14:04:39;100457.09;;;15.99;55.00
77110;BME280;66062;52.464;16.922;2023-03-20T14:07:28;100454.41;;;15.99;56.30
77110;BME280;66062;52.464;16.922;2023-03-20T14:09:54;100458.50;;;15.87;57.08
77110;BME280;66062;52.464;16.922;2023-03-20T14:12:24;100457.69;;;15.47;58.57
77110;BME280;66062;52.464;16.922;2023-03-20T14:14:58;100459.06;;;15.43;58.74
77110;BME280;66062;52.464;16.922;2023-03-20T14:17:27;100461.16;;;15.17;60.66
77110;BME280;66062;52.464;16.922;2023-03-20T14:19:54;100466.38;;;15.10;62.10
77110;BME280;66062;52.464;16.922;2023-03-20T14:22:25;100462.72;;;14.95;62.85
77110;BME280;66062;52.464;16.922;2023-03-20T14:24:58;100464.91;;;15.08;63.19
77110;BME280;66062;52.464;16.922;2023-03-20T14:27:29;100463.91;;;14.84;64.79
77110;BME280;66062;52.464;16.922;2023-03-20T14:33:44;100467.97;;;14.64;65.69
77110;BME280;66062;52.464;16.922;2023-03-20T14:35:50;100467.66;;;14.59;66.24
77110;BME280;66062;52.464;16.922;2023-03-20T14:46:21;100466.31;;;14.39;66.73
77110;BME280;66062;52.464;16.922;2023-03-20T14:48:52;100463.44;;;14.24;67.42
77110;BME280;66062;52.464;16.922;2023-03-20T14:56:49;100474.75;;;13.78;69.63
77110;BME280;66062;52.464;16.922;2023-03-20T14:59:16;100485.25;;;13.55;71.70
77110;BME280;66062;52.464;16.922;2023-03-20T15:01:55;100486.34;;;13.36;73.81
77110;BME280;66062;52.464;16.922;2023-03-20T15:09:37;100502.44;;;12.84;77.27
77110;BME280;66062;52.464;16.922;2023-03-20T15:12:06;100494.66;;;12.73;77.64
77110;BME280;66062;52.464;16.922;2023-03-20T15:14:59;100495.63;;;12.64;77.98
77110;BME280;66062;52.464;16.922;2023-03-20T15:17:37;100491.63;;;12.68;77.32
77110;BME280;66062;52.464;16.922;2023-03-20T15:20:12;100494.91;;;12.62;77.17